sensor_id;sensor_type;location;lat;lon;timestamp;P1;durP1;ratioP1;P2;durP2;ratioP2
24644;SDS011;12780;45.502;9.146;2023-01-29T00:01:12;64.10;;;27.48;;
24644;SDS011;12780;45.502;9.146;2023-01-29T00:03:38;63.13;;;27.88;;
24644;SDS011;12780;45.502;9.146;2023-01-29T00:06:05;60.45;;;27.08;;
24644;SDS011;12780;45.502;9.146;2023-01-29T00:08:35;64.82;;;27.15;;
24644;SDS011;12780;45.502;9.146;2023-01-29T00:11:02;62.17;;;26.20;;
24644;SDS011;12780;45.502;9.146;2023-01-29T00:13:29;59.45;;;27.10;;
24644;SDS011;12780;45.502;9.146;2023-01-29T00:15:55;62.67;;;27.55;;
24644;SDS011;12780;45.502;9.146;2023-01-29T00:18:22;61.65;;;27.67;;
24644;SDS011;12780;45.502;9.146;2023-01-29T00:20:49;57.60;;;26.98;;
24644;SDS011;12780;45.502;9.146;2023-01-29T00:23:15;61.92;;;27.30;;
24644;SDS011;12780;45.502;9.146;2023-01-29T00:25:41;63.33;;;28.02;;
24644;SDS011;12780;45.502;9.146;2023-01-29T00:28:06;60.63;;;27.40;;
24644;SDS011;12780;45.502;9.146;2023-01-29T00:30:32;66.13;;;28.83;;
24644;SDS011;12780;45.502;9.146;2023-01-29T00:32:58;58.53;;;27.00;;
24644;SDS011;12780;45.502;9.146;2023-01-29T00:35:23;67.30;;;28.77;;
24644;SDS011;12780;45.502;9.146;2023-01-29T00:37:49;63.75;;;27.63;;
24644;SDS011;12780;45.502;9.146;2023-01-29T00:40:14;56.58;;;26.98;;
24644;SDS011;12780;45.502;9.146;2023-01-29T00:42:43;62.85;;;28.10;;
24644;SDS011;12780;45.502;9.146;2023-01-29T00:45:27;70.55;;;29.38;;
24644;SDS011;12780;45.502;9.146;2023-01-29T00:47:53;61.90;;;29.00;;
24644;SDS011;12780;45.502;9.146;2023-01-29T00:50:19;61.70;;;28.23;;
24644;SDS011;12780;45.502;9.146;2023-01-29T00:52:44;71.53;;;29.58;;
24644;SDS011;12780;45.502;9.146;2023-01-29T00:55:12;65.60;;;27.80;;
24644;SDS011;12780;45.502;9.146;2023-01-29T00:57:38;62.00;;;28.08;;
24644;SDS011;12780;45.502;9.146;2023-01-29T01:00:05;60.00;;;28.55;;
24644;SDS011;12780;45.502;9.146;2023-01-29T01:02:32;67.30;;;29.33;;
24644;SDS011;12780;45.502;9.146;2023-01-29T01:05:17;66.03;;;29.58;;
24644;SDS011;12780;45.502;9.146;2023-01-29T01:07:43;65.43;;;29.73;;
24644;SDS011;12780;45.502;9.146;2023-01-29T01:10:15;66.43;;;29.67;;
24644;SDS011;12780;45.502;9.146;2023-01-29T01:12:46;67.68;;;28.75;;
24644;SDS011;12780;45.502;9.146;2023-01-29T01:15:30;62.13;;;28.13;;
24644;SDS011;12780;45.502;9.146;2023-01-29T01:17:58;65.65;;;29.15;;
24644;SDS011;12780;45.502;9.146;2023-01-29T01:20:26;72.00;;;29.42;;
24644;SDS011;12780;45.502;9.146;2023-01-29T01:22:53;65.28;;;27.80;;
24644;SDS011;12780;45.502;9.146;2023-01-29T01:25:19;63.28;;;29.27;;
24644;SDS011;12780;45.502;9.146;2023-01-29T01:27:46;58.72;;;27.75;;
24644;SDS011;12780;45.502;9.146;2023-01-29T01:30:13;70.35;;;28.88;;
24644;SDS011;12780;45.502;9.146;2023-01-29T01:32:40;65.13;;;28.05;;
24644;SDS011;12780;45.502;9.146;2023-01-29T01:35:06;68.97;;;29.02;;
24644;SDS011;12780;45.502;9.146;2023-01-29T01:37:33;71.45;;;28.77;;
24644;SDS011;12780;45.502;9.146;2023-01-29T01:40:01;63.63;;;27.00;;
24644;SDS011;12780;45.502;9.146;2023-01-29T01:42:29;64.30;;;28.05;;
24644;SDS011;12780;45.502;9.146;2023-01-29T01:45:02;57.78;;;26.98;;
24644;SDS011;12780;45.502;9.146;2023-01-29T01:50:07;63.10;;;27.88;;
24644;SDS011;12780;45.502;9.146;2023-01-29T01:52:39;61.65;;;25.83;;
24644;SDS011;12780;45.502;9.146;2023-01-29T01:55:08;59.80;;;27.02;;
24644;SDS011;12780;45.502;9.146;2023-01-29T01:57:37;62.20;;;27.48;;
24644;SDS011;12780;45.502;9.146;2023-01-29T02:00:09;69.85;;;28.00;;
24644;SDS011;12780;45.502;9.146;2023-01-29T02:02:40;57.00;;;26.73;;
24644;SDS011;12780;45.502;9.146;2023-01-29T02:05:27;60.67;;;27.23;;
24644;SDS011;12780;45.502;9.146;2023-01-29T02:08:13;66.80;;;28.08;;
24644;SDS011;12780;45.502;9.146;2023-01-29T02:11:00;67.75;;;28.23;;
24644;SDS011;12780;45.502;9.146;2023-01-29T02:13:25;62.55;;;27.02;;
24644;SDS011;12780;45.502;9.146;2023-01-29T02:15:51;60.60;;;27.75;;
24644;SDS011;12780;45.502;9.146;2023-01-29T02:18:17;55.47;;;25.98;;
24644;SDS011;12780;45.502;9.146;2023-01-29T02:20:50;63.42;;;26.92;;
24644;SDS011;12780;45.502;9.146;2023-01-29T02:23:37;57.45;;;26.80;;
24644;SDS011;12780;45.502;9.146;2023-01-29T02:29:23;60.25;;;26.83;;
24644;SDS011;12780;45.502;9.146;2023-01-29T02:34:52;58.63;;;27.92;;
24644;SDS011;12780;45.502;9.146;2023-01-29T02:37:40;59.30;;;26.73;;
24644;SDS011;12780;45.502;9.146;2023-01-29T02:40:20;58.28;;;27.23;;
24644;SDS011;12780;45.502;9.146;2023-01-29T02:47:57;64.35;;;28.88;;
24644;SDS011;12780;45.502;9.146;2023-01-29T02:50:36;59.15;;;26.73;;
24644;SDS011;12780;45.502;9.146;2023-01-29T02:56:21;54.22;;;25.20;;
24644;SDS011;12780;45.502;9.146;2023-01-29T02:58:56;55.92;;;24.55;;
24644;SDS011;12780;45.502;9.146;2023-01-29T03:01:30;64.40;;;25.85;;
24644;SDS011;12780;45.502;9.146;2023-01-29T03:04:06;57.10;;;25.88;;
24644;SDS011;12780;45.502;9.146;2023-01-29T03:06:46;58.22;;;25.08;;
24644;SDS011;12780;45.502;9.146;2023-01-29T03:09:33;62.55;;;25.33;;
24644;SDS011;12780;45.502;9.146;2023-01-29T03:12:06;56.17;;;24.55;;
24644;SDS011;12780;45.502;9.146;2023-01-29T03:14:58;52.70;;;23.90;;
24644;SDS011;12780;45.502;9.146;2023-01-29T03:20:12;50.05;;;23.55;;
24644;SDS011;12780;45.502;9.146;2023-01-29T03:22:43;56.80;;;25.20;;
24644;SDS011;12780;45.502;9.146;2023-01-29T03:25:12;55.88;;;24.05;;
24644;SDS011;12780;45.502;9.146;2023-01-29T03:27:59;49.63;;;23.08;;
24644;SDS011;12780;45.502;9.146;2023-01-29T03:33:34;55.80;;;24.45;;
24644;SDS011;12780;45.502;9.146;2023-01-29T03:36:15;52.63;;;23.75;;
24644;SDS011;12780;45.502;9.146;2023-01-29T03:38:43;55.45;;;24.63;;
24644;SDS011;12780;45.502;9.146;2023-01-29T03:41:21;54.50;;;23.58;;
24644;SDS011;12780;45.502;9.146;2023-01-29T03:46:38;47.55;;;21.33;;
24644;SDS011;12780;45.502;9.146;2023-01-29T03:52:50;46.03;;;20.85;;
24644;SDS011;12780;45.502;9.146;2023-01-29T03:58:19;53.35;;;21.83;;
24644;SDS011;12780;45.502;9.146;2023-01-29T04:03:49;45.88;;;19.35;;
24644;SDS011;12780;45.502;9.146;2023-01-29T04:06:22;46.90;;;20.30;;
24644;SDS011;12780;45.502;9.146;2023-01-29T04:08:54;48.10;;;21.02;;
24644;SDS011;12780;45.502;9.146;2023-01-29T04:11:24;44.65;;;20.10;;
24644;SDS011;12780;45.502;9.146;2023-01-29T04:13:51;48.58;;;20.80;;
24644;SDS011;12780;45.502;9.146;2023-01-29T04:16:19;45.42;;;21.05;;
24644;SDS011;12780;45.502;9.146;2023-01-29T04:18:50;44.73;;;20.77;;
24644;SDS011;12780;45.502;9.146;2023-01-29T04:21:17;46.30;;;20.65;;
24644;SDS011;12780;45.502;9.146;2023-01-29T04:23:42;42.08;;;19.92;;
24644;SDS011;12780;45.502;9.146;2023-01-29T04:26:27;43.72;;;19.17;;
24644;SDS011;12780;45.502;9.146;2023-01-29T04:32:10;48.70;;;23.30;;
24644;SDS011;12780;45.502;9.146;2023-01-29T04:34:55;43.75;;;19.45;;
24644;SDS011;12780;45.502;9.146;2023-01-29T04:40:20;44.55;;;20.02;;
24644;SDS011;12780;45.502;9.146;2023-01-29T04:43:05;40.17;;;20.25;;
24644;SDS011;12780;45.502;9.146;2023-01-29T04:45:48;41.08;;;18.83;;
24644;SDS011;12780;45.502;9.146;2023-01-29T04:48:23;42.80;;;18.80;;
24644;SDS011;12780;45.502;9.146;2023-01-29T04:51:03;45.35;;;18.92;;
24644;SDS011;12780;45.502;9.146;2023-01-29T04:53:37;38.60;;;17.98;;
24644;SDS011;12780;45.502;9.146;2023-01-29T04:56:41;42.10;;;19.17;;
24644;SDS011;12780;45.502;9.146;2023-01-29T04:59:37;41.90;;;18.00;;
24644;SDS011;12780;45.502;9.146;2023-01-29T05:02:11;42.50;;;18.77;;
24644;SDS011;12780;45.502;9.146;2023-01-29T05:04:38;41.55;;;18.63;;
24644;SDS011;12780;45.502;9.146;2023-01-29T05:07:07;42.03;;;18.73;;
24644;SDS011;12780;45.502;9.146;2023-01-29T05:09:35;39.10;;;17.55;;
24644;SDS011;12780;45.502;9.146;2023-01-29T05:12:02;36.10;;;17.02;;
24644;SDS011;12780;45.502;9.146;2023-01-29T05:14:32;41.22;;;17.00;;
24644;SDS011;12780;45.502;9.146;2023-01-29T05:16:58;39.70;;;17.40;;
24644;SDS011;12780;45.502;9.146;2023-01-29T05:19:29;39.65;;;17.38;;
24644;SDS011;12780;45.502;9.146;2023-01-29T05:21:54;36.67;;;18.25;;
24644;SDS011;12780;45.502;9.146;2023-01-29T05:24:22;39.63;;;17.10;;
24644;SDS011;12780;45.502;9.146;2023-01-29T05:26:50;37.25;;;16.10;;
24644;SDS011;12780;45.502;9.146;2023-01-29T05:29:35;34.72;;;16.42;;
24644;SDS011;12780;45.502;9.146;2023-01-29T05:32:02;39.33;;;18.13;;
24644;SDS011;12780;45.502;9.146;2023-01-29T05:34:28;38.75;;;17.70;;
24644;SDS011;12780;45.502;9.146;2023-01-29T05:36:54;37.55;;;16.52;;
24644;SDS011;12780;45.502;9.146;2023-01-29T05:39:19;40.78;;;16.13;;
24644;SDS011;12780;45.502;9.146;2023-01-29T05:41:45;39.00;;;16.60;;
24644;SDS011;12780;45.502;9.146;2023-01-29T05:44:11;40.25;;;16.38;;
24644;SDS011;12780;45.502;9.146;2023-01-29T05:46:37;40.78;;;17.17;;
24644;SDS011;12780;45.502;9.146;2023-01-29T05:49:03;34.88;;;16.60;;
24644;SDS011;12780;45.502;9.146;2023-01-29T05:51:29;34.35;;;15.85;;
24644;SDS011;12780;45.502;9.146;2023-01-29T05:53:55;37.35;;;16.10;;
24644;SDS011;12780;45.502;9.146;2023-01-29T05:56:20;43.50;;;16.65;;
24644;SDS011;12780;45.502;9.146;2023-01-29T05:58:46;39.50;;;16.55;;
24644;SDS011;12780;45.502;9.146;2023-01-29T06:01:13;35.22;;;15.60;;
24644;SDS011;12780;45.502;9.146;2023-01-29T06:03:41;36.17;;;16.73;;
24644;SDS011;12780;45.502;9.146;2023-01-29T06:06:07;35.65;;;16.45;;
24644;SDS011;12780;45.502;9.146;2023-01-29T06:08:33;34.28;;;14.80;;
24644;SDS011;12780;45.502;9.146;2023-01-29T06:10:58;29.27;;;14.23;;
24644;SDS011;12780;45.502;9.146;2023-01-29T06:13:24;37.00;;;14.93;;
24644;SDS011;12780;45.502;9.146;2023-01-29T06:15:50;34.58;;;14.70;;
24644;SDS011;12780;45.502;9.146;2023-01-29T06:18:15;36.83;;;15.65;;
24644;SDS011;12780;45.502;9.146;2023-01-29T06:20:41;32.25;;;14.23;;
24644;SDS011;12780;45.502;9.146;2023-01-29T06:23:06;30.67;;;14.50;;
24644;SDS011;12780;45.502;9.146;2023-01-29T06:25:32;30.58;;;14.45;;
24644;SDS011;12780;45.502;9.146;2023-01-29T06:27:58;33.55;;;14.65;;
24644;SDS011;12780;45.502;9.146;2023-01-29T06:30:23;31.98;;;14.63;;
24644;SDS011;12780;45.502;9.146;2023-01-29T06:32:49;33.65;;;15.32;;
24644;SDS011;12780;45.502;9.146;2023-01-29T06:35:14;35.78;;;15.70;;
24644;SDS011;12780;45.502;9.146;2023-01-29T06:37:40;38.60;;;16.40;;
24644;SDS011;12780;45.502;9.146;2023-01-29T06:40:06;38.13;;;17.23;;
24644;SDS011;12780;45.502;9.146;2023-01-29T06:42:33;39.28;;;18.27;;
24644;SDS011;12780;45.502;9.146;2023-01-29T06:44:59;43.63;;;18.27;;
24644;SDS011;12780;45.502;9.146;2023-01-29T06:47:25;34.78;;;17.05;;
24644;SDS011;12780;45.502;9.146;2023-01-29T06:49:51;39.05;;;17.10;;
24644;SDS011;12780;45.502;9.146;2023-01-29T06:52:17;38.10;;;16.95;;
24644;SDS011;12780;45.502;9.146;2023-01-29T06:54:42;36.67;;;18.02;;
24644;SDS011;12780;45.502;9.146;2023-01-29T06:57:08;40.65;;;18.25;;
24644;SDS011;12780;45.502;9.146;2023-01-29T06:59:33;39.13;;;17.25;;
24644;SDS011;12780;45.502;9.146;2023-01-29T07:01:59;36.72;;;17.73;;
24644;SDS011;12780;45.502;9.146;2023-01-29T07:04:24;36.85;;;19.05;;
24644;SDS011;12780;45.502;9.146;2023-01-29T07:06:50;39.33;;;18.95;;
24644;SDS011;12780;45.502;9.146;2023-01-29T07:09:16;37.75;;;17.80;;
24644;SDS011;12780;45.502;9.146;2023-01-29T07:11:41;40.58;;;17.92;;
24644;SDS011;12780;45.502;9.146;2023-01-29T07:14:07;39.40;;;17.63;;
24644;SDS011;12780;45.502;9.146;2023-01-29T07:16:32;37.58;;;16.00;;
24644;SDS011;12780;45.502;9.146;2023-01-29T07:18:58;34.28;;;15.90;;
24644;SDS011;12780;45.502;9.146;2023-01-29T07:21:24;39.47;;;16.95;;
24644;SDS011;12780;45.502;9.146;2023-01-29T07:23:49;33.70;;;15.65;;
24644;SDS011;12780;45.502;9.146;2023-01-29T07:26:15;37.30;;;15.48;;
24644;SDS011;12780;45.502;9.146;2023-01-29T07:28:41;31.58;;;14.95;;
24644;SDS011;12780;45.502;9.146;2023-01-29T07:31:07;34.13;;;14.95;;
24644;SDS011;12780;45.502;9.146;2023-01-29T07:33:37;35.35;;;15.43;;
24644;SDS011;12780;45.502;9.146;2023-01-29T07:36:06;33.50;;;15.77;;
24644;SDS011;12780;45.502;9.146;2023-01-29T07:38:32;32.25;;;14.65;;
24644;SDS011;12780;45.502;9.146;2023-01-29T07:40:58;36.80;;;15.68;;
24644;SDS011;12780;45.502;9.146;2023-01-29T07:43:23;34.88;;;14.63;;
24644;SDS011;12780;45.502;9.146;2023-01-29T07:45:49;38.17;;;15.10;;
24644;SDS011;12780;45.502;9.146;2023-01-29T07:48:15;33.83;;;15.13;;
24644;SDS011;12780;45.502;9.146;2023-01-29T07:50:41;31.35;;;14.32;;
24644;SDS011;12780;45.502;9.146;2023-01-29T07:53:11;31.35;;;14.73;;
24644;SDS011;12780;45.502;9.146;2023-01-29T07:55:38;34.67;;;14.88;;
24644;SDS011;12780;45.502;9.146;2023-01-29T07:58:04;32.58;;;15.77;;
24644;SDS011;12780;45.502;9.146;2023-01-29T08:00:30;32.83;;;15.73;;
24644;SDS011;12780;45.502;9.146;2023-01-29T08:03:05;38.35;;;15.55;;
24644;SDS011;12780;45.502;9.146;2023-01-29T08:05:34;34.03;;;14.55;;
24644;SDS011;12780;45.502;9.146;2023-01-29T08:08:00;39.25;;;16.75;;
24644;SDS011;12780;45.502;9.146;2023-01-29T08:10:26;34.97;;;16.80;;
24644;SDS011;12780;45.502;9.146;2023-01-29T08:12:52;37.38;;;17.35;;
24644;SDS011;12780;45.502;9.146;2023-01-29T08:15:22;35.67;;;16.75;;
24644;SDS011;12780;45.502;9.146;2023-01-29T08:17:48;41.67;;;18.98;;
24644;SDS011;12780;45.502;9.146;2023-01-29T08:20:14;42.35;;;20.13;;
24644;SDS011;12780;45.502;9.146;2023-01-29T08:22:39;45.25;;;20.58;;
24644;SDS011;12780;45.502;9.146;2023-01-29T08:25:05;47.33;;;20.27;;
24644;SDS011;12780;45.502;9.146;2023-01-29T08:27:31;57.33;;;22.40;;
24644;SDS011;12780;45.502;9.146;2023-01-29T08:29:56;56.53;;;22.83;;
24644;SDS011;12780;45.502;9.146;2023-01-29T08:32:22;42.15;;;18.88;;
24644;SDS011;12780;45.502;9.146;2023-01-29T08:34:47;33.25;;;15.73;;
24644;SDS011;12780;45.502;9.146;2023-01-29T08:37:13;53.58;;;23.13;;
24644;SDS011;12780;45.502;9.146;2023-01-29T08:39:38;41.20;;;19.40;;
24644;SDS011;12780;45.502;9.146;2023-01-29T08:42:04;36.53;;;17.38;;
24644;SDS011;12780;45.502;9.146;2023-01-29T08:44:29;38.13;;;18.45;;
24644;SDS011;12780;45.502;9.146;2023-01-29T08:46:55;40.78;;;18.27;;
24644;SDS011;12780;45.502;9.146;2023-01-29T08:49:20;39.05;;;17.63;;
24644;SDS011;12780;45.502;9.146;2023-01-29T08:51:46;40.15;;;16.73;;
24644;SDS011;12780;45.502;9.146;2023-01-29T08:54:12;39.38;;;17.27;;
24644;SDS011;12780;45.502;9.146;2023-01-29T08:56:37;39.67;;;16.65;;
24644;SDS011;12780;45.502;9.146;2023-01-29T08:59:03;32.80;;;16.25;;
24644;SDS011;12780;45.502;9.146;2023-01-29T09:01:28;37.22;;;16.65;;
24644;SDS011;12780;45.502;9.146;2023-01-29T09:03:54;36.35;;;15.45;;
24644;SDS011;12780;45.502;9.146;2023-01-29T09:06:20;31.50;;;15.10;;
24644;SDS011;12780;45.502;9.146;2023-01-29T09:08:45;35.72;;;15.90;;
24644;SDS011;12780;45.502;9.146;2023-01-29T09:11:12;35.38;;;16.55;;
24644;SDS011;12780;45.502;9.146;2023-01-29T09:13:37;37.67;;;15.50;;
24644;SDS011;12780;45.502;9.146;2023-01-29T09:16:03;34.88;;;15.85;;
24644;SDS011;12780;45.502;9.146;2023-01-29T09:18:29;34.17;;;15.77;;
24644;SDS011;12780;45.502;9.146;2023-01-29T09:20:56;37.78;;;15.55;;
24644;SDS011;12780;45.502;9.146;2023-01-29T09:23:22;38.03;;;15.93;;
24644;SDS011;12780;45.502;9.146;2023-01-29T09:25:48;32.90;;;15.40;;
24644;SDS011;12780;45.502;9.146;2023-01-29T09:28:14;37.45;;;16.20;;
24644;SDS011;12780;45.502;9.146;2023-01-29T09:30:41;31.27;;;16.20;;
24644;SDS011;12780;45.502;9.146;2023-01-29T09:33:07;34.95;;;16.73;;
24644;SDS011;12780;45.502;9.146;2023-01-29T09:35:33;37.53;;;17.23;;
24644;SDS011;12780;45.502;9.146;2023-01-29T09:37:58;35.40;;;15.90;;
24644;SDS011;12780;45.502;9.146;2023-01-29T09:43:03;36.13;;;17.27;;
24644;SDS011;12780;45.502;9.146;2023-01-29T09:45:33;32.60;;;16.23;;
24644;SDS011;12780;45.502;9.146;2023-01-29T09:48:01;33.95;;;16.42;;
24644;SDS011;12780;45.502;9.146;2023-01-29T09:50:40;34.97;;;17.15;;
24644;SDS011;12780;45.502;9.146;2023-01-29T09:53:16;36.45;;;17.10;;
24644;SDS011;12780;45.502;9.146;2023-01-29T09:55:47;35.58;;;17.02;;
24644;SDS011;12780;45.502;9.146;2023-01-29T09:58:29;37.75;;;17.85;;
24644;SDS011;12780;45.502;9.146;2023-01-29T10:01:14;37.80;;;17.50;;
24644;SDS011;12780;45.502;9.146;2023-01-29T10:14:40;31.38;;;15.70;;
24644;SDS011;12780;45.502;9.146;2023-01-29T10:25:47;36.70;;;16.65;;
24644;SDS011;12780;45.502;9.146;2023-01-29T10:28:15;35.33;;;16.30;;
24644;SDS011;12780;45.502;9.146;2023-01-29T10:30:56;34.05;;;16.90;;
24644;SDS011;12780;45.502;9.146;2023-01-29T10:33:30;35.55;;;17.30;;
24644;SDS011;12780;45.502;9.146;2023-01-29T10:36:05;42.13;;;17.90;;
24644;SDS011;12780;45.502;9.146;2023-01-29T10:38:45;34.67;;;16.85;;
24644;SDS011;12780;45.502;9.146;2023-01-29T10:55:14;36.95;;;18.20;;
24644;SDS011;12780;45.502;9.146;2023-01-29T11:00:21;42.10;;;19.00;;
24644;SDS011;12780;45.502;9.146;2023-01-29T11:02:50;37.10;;;17.20;;
24644;SDS011;12780;45.502;9.146;2023-01-29T11:05:26;35.83;;;16.70;;
24644;SDS011;12780;45.502;9.146;2023-01-29T11:08:02;38.42;;;17.33;;
24644;SDS011;12780;45.502;9.146;2023-01-29T11:10:53;38.45;;;16.60;;
24644;SDS011;12780;45.502;9.146;2023-01-29T11:13:31;33.85;;;16.98;;
24644;SDS011;12780;45.502;9.146;2023-01-29T11:16:16;33.00;;;16.02;;
24644;SDS011;12780;45.502;9.146;2023-01-29T11:21:13;37.17;;;17.10;;
24644;SDS011;12780;45.502;9.146;2023-01-29T11:23:40;36.22;;;15.85;;
24644;SDS011;12780;45.502;9.146;2023-01-29T11:26:05;34.55;;;16.38;;
24644;SDS011;12780;45.502;9.146;2023-01-29T11:28:36;38.58;;;17.15;;
24644;SDS011;12780;45.502;9.146;2023-01-29T11:34:04;35.73;;;17.50;;
24644;SDS011;12780;45.502;9.146;2023-01-29T11:36:37;38.55;;;17.63;;
24644;SDS011;12780;45.502;9.146;2023-01-29T11:41:35;37.45;;;17.42;;
24644;SDS011;12780;45.502;9.146;2023-01-29T11:44:17;33.65;;;14.82;;
24644;SDS011;12780;45.502;9.146;2023-01-29T11:46:43;30.83;;;14.60;;
24644;SDS011;12780;45.502;9.146;2023-01-29T11:49:14;35.60;;;16.05;;
24644;SDS011;12780;45.502;9.146;2023-01-29T11:51:59;31.55;;;15.02;;
24644;SDS011;12780;45.502;9.146;2023-01-29T11:54:48;34.95;;;16.13;;
24644;SDS011;12780;45.502;9.146;2023-01-29T11:57:35;34.55;;;16.60;;
24644;SDS011;12780;45.502;9.146;2023-01-29T12:00:05;30.30;;;14.90;;
24644;SDS011;12780;45.502;9.146;2023-01-29T12:05:30;26.38;;;13.15;;
24644;SDS011;12780;45.502;9.146;2023-01-29T12:07:56;28.90;;;13.63;;
24644;SDS011;12780;45.502;9.146;2023-01-29T12:10:36;29.05;;;14.48;;
24644;SDS011;12780;45.502;9.146;2023-01-29T12:13:14;32.17;;;15.05;;
24644;SDS011;12780;45.502;9.146;2023-01-29T12:16:04;28.65;;;13.18;;
24644;SDS011;12780;45.502;9.146;2023-01-29T12:18:50;26.08;;;13.25;;
24644;SDS011;12780;45.502;9.146;2023-01-29T12:21:34;29.52;;;13.38;;
24644;SDS011;12780;45.502;9.146;2023-01-29T12:24:22;34.03;;;14.45;;
24644;SDS011;12780;45.502;9.146;2023-01-29T12:29:57;23.88;;;11.70;;
24644;SDS011;12780;45.502;9.146;2023-01-29T12:32:50;28.10;;;12.85;;
24644;SDS011;12780;45.502;9.146;2023-01-29T12:35:24;27.90;;;11.93;;
24644;SDS011;12780;45.502;9.146;2023-01-29T12:38:18;29.23;;;12.88;;
24644;SDS011;12780;45.502;9.146;2023-01-29T12:40:49;25.50;;;12.45;;
24644;SDS011;12780;45.502;9.146;2023-01-29T12:45:54;25.65;;;11.18;;
24644;SDS011;12780;45.502;9.146;2023-01-29T12:48:40;21.90;;;10.70;;
24644;SDS011;12780;45.502;9.146;2023-01-29T12:51:12;18.40;;;9.70;;
24644;SDS011;12780;45.502;9.146;2023-01-29T12:54:07;22.00;;;11.57;;
24644;SDS011;12780;45.502;9.146;2023-01-29T12:56:45;23.83;;;11.95;;
24644;SDS011;12780;45.502;9.146;2023-01-29T13:01:58;27.13;;;12.73;;
24644;SDS011;12780;45.502;9.146;2023-01-29T13:04:29;26.52;;;13.07;;
24644;SDS011;12780;45.502;9.146;2023-01-29T13:07:19;26.98;;;12.27;;
24644;SDS011;12780;45.502;9.146;2023-01-29T13:09:53;22.27;;;10.17;;
24644;SDS011;12780;45.502;9.146;2023-01-29T13:12:39;19.73;;;10.20;;
24644;SDS011;12780;45.502;9.146;2023-01-29T13:15:14;23.98;;;11.07;;
24644;SDS011;12780;45.502;9.146;2023-01-29T13:17:52;23.75;;;12.05;;
24644;SDS011;12780;45.502;9.146;2023-01-29T13:22:47;22.70;;;11.63;;
24644;SDS011;12780;45.502;9.146;2023-01-29T13:25:17;20.70;;;10.40;;
24644;SDS011;12780;45.502;9.146;2023-01-29T13:27:44;26.90;;;12.05;;
24644;SDS011;12780;45.502;9.146;2023-01-29T13:32:51;24.88;;;12.63;;
24644;SDS011;12780;45.502;9.146;2023-01-29T13:35:18;29.10;;;13.25;;
24644;SDS011;12780;45.502;9.146;2023-01-29T13:37:51;26.48;;;13.18;;
24644;SDS011;12780;45.502;9.146;2023-01-29T13:40:25;24.92;;;12.77;;
24644;SDS011;12780;45.502;9.146;2023-01-29T13:42:54;32.00;;;13.32;;
24644;SDS011;12780;45.502;9.146;2023-01-29T13:45:34;27.08;;;12.82;;
24644;SDS011;12780;45.502;9.146;2023-01-29T13:48:07;25.42;;;12.85;;
24644;SDS011;12780;45.502;9.146;2023-01-29T13:50:40;29.35;;;14.20;;
24644;SDS011;12780;45.502;9.146;2023-01-29T13:53:07;25.88;;;12.85;;
24644;SDS011;12780;45.502;9.146;2023-01-29T13:55:49;26.60;;;13.18;;
24644;SDS011;12780;45.502;9.146;2023-01-29T14:00:46;27.83;;;13.85;;
24644;SDS011;12780;45.502;9.146;2023-01-29T14:05:40;26.58;;;13.60;;
24644;SDS011;12780;45.502;9.146;2023-01-29T14:10:37;30.15;;;13.20;;
24644;SDS011;12780;45.502;9.146;2023-01-29T14:15:35;27.20;;;13.07;;
24644;SDS011;12780;45.502;9.146;2023-01-29T14:18:16;25.75;;;12.07;;
24644;SDS011;12780;45.502;9.146;2023-01-29T14:23:20;26.38;;;12.85;;
24644;SDS011;12780;45.502;9.146;2023-01-29T14:25:46;25.05;;;11.55;;
24644;SDS011;12780;45.502;9.146;2023-01-29T14:28:14;23.92;;;12.38;;
24644;SDS011;12780;45.502;9.146;2023-01-29T14:30:47;25.48;;;12.20;;
24644;SDS011;12780;45.502;9.146;2023-01-29T14:33:21;27.42;;;12.75;;
24644;SDS011;12780;45.502;9.146;2023-01-29T14:35:50;25.50;;;12.55;;
24644;SDS011;12780;45.502;9.146;2023-01-29T14:38:17;24.67;;;12.30;;
24644;SDS011;12780;45.502;9.146;2023-01-29T14:40:43;26.63;;;12.30;;
24644;SDS011;12780;45.502;9.146;2023-01-29T14:43:17;31.77;;;13.80;;
24644;SDS011;12780;45.502;9.146;2023-01-29T14:45:45;25.67;;;13.05;;
24644;SDS011;12780;45.502;9.146;2023-01-29T14:51:18;30.55;;;14.00;;
24644;SDS011;12780;45.502;9.146;2023-01-29T14:53:48;29.30;;;12.98;;
24644;SDS011;12780;45.502;9.146;2023-01-29T14:56:34;28.70;;;14.25;;
24644;SDS011;12780;45.502;9.146;2023-01-29T14:59:10;29.77;;;13.57;;
24644;SDS011;12780;45.502;9.146;2023-01-29T15:01:42;30.83;;;14.77;;
24644;SDS011;12780;45.502;9.146;2023-01-29T15:04:22;31.63;;;14.38;;
24644;SDS011;12780;45.502;9.146;2023-01-29T15:06:54;28.38;;;13.88;;
24644;SDS011;12780;45.502;9.146;2023-01-29T15:11:50;29.50;;;14.13;;
24644;SDS011;12780;45.502;9.146;2023-01-29T15:19:52;28.00;;;14.50;;
24644;SDS011;12780;45.502;9.146;2023-01-29T15:24:46;28.92;;;13.60;;
24644;SDS011;12780;45.502;9.146;2023-01-29T15:27:26;27.00;;;13.15;;
24644;SDS011;12780;45.502;9.146;2023-01-29T15:29:56;31.52;;;14.32;;
24644;SDS011;12780;45.502;9.146;2023-01-29T15:32:45;25.92;;;13.20;;
24644;SDS011;12780;45.502;9.146;2023-01-29T15:35:28;30.02;;;13.50;;
24644;SDS011;12780;45.502;9.146;2023-01-29T15:38:05;28.27;;;13.23;;
24644;SDS011;12780;45.502;9.146;2023-01-29T15:40:50;29.48;;;13.43;;
24644;SDS011;12780;45.502;9.146;2023-01-29T15:43:21;26.40;;;13.43;;
24644;SDS011;12780;45.502;9.146;2023-01-29T15:45:49;28.58;;;13.90;;
24644;SDS011;12780;45.502;9.146;2023-01-29T15:48:23;28.63;;;13.40;;
24644;SDS011;12780;45.502;9.146;2023-01-29T15:50:55;30.08;;;13.93;;
24644;SDS011;12780;45.502;9.146;2023-01-29T15:53:24;27.73;;;14.15;;
24644;SDS011;12780;45.502;9.146;2023-01-29T15:55:54;27.30;;;12.95;;
24644;SDS011;12780;45.502;9.146;2023-01-29T15:58:27;28.13;;;13.68;;
24644;SDS011;12780;45.502;9.146;2023-01-29T16:00:55;30.10;;;13.75;;
24644;SDS011;12780;45.502;9.146;2023-01-29T16:03:24;29.17;;;13.77;;
24644;SDS011;12780;45.502;9.146;2023-01-29T16:05:52;31.35;;;14.80;;
24644;SDS011;12780;45.502;9.146;2023-01-29T16:08:22;29.77;;;13.55;;
24644;SDS011;12780;45.502;9.146;2023-01-29T16:10:51;28.33;;;14.00;;
24644;SDS011;12780;45.502;9.146;2023-01-29T16:13:24;33.78;;;14.18;;
24644;SDS011;12780;45.502;9.146;2023-01-29T16:18:38;31.45;;;13.85;;
24644;SDS011;12780;45.502;9.146;2023-01-29T16:26:42;29.60;;;13.18;;
24644;SDS011;12780;45.502;9.146;2023-01-29T16:29:14;31.23;;;14.18;;
24644;SDS011;12780;45.502;9.146;2023-01-29T16:31:42;29.17;;;13.70;;
24644;SDS011;12780;45.502;9.146;2023-01-29T16:34:23;31.13;;;14.32;;
24644;SDS011;12780;45.502;9.146;2023-01-29T16:36:49;32.17;;;14.23;;
24644;SDS011;12780;45.502;9.146;2023-01-29T16:39:17;32.63;;;14.38;;
24644;SDS011;12780;45.502;9.146;2023-01-29T16:41:59;33.20;;;14.60;;
24644;SDS011;12780;45.502;9.146;2023-01-29T16:47:39;32.47;;;14.93;;
24644;SDS011;12780;45.502;9.146;2023-01-29T16:55:43;28.38;;;14.55;;
24644;SDS011;12780;45.502;9.146;2023-01-29T16:58:11;32.03;;;14.68;;
24644;SDS011;12780;45.502;9.146;2023-01-29T17:00:44;34.72;;;15.10;;
24644;SDS011;12780;45.502;9.146;2023-01-29T17:03:12;29.92;;;13.85;;
24644;SDS011;12780;45.502;9.146;2023-01-29T17:05:40;34.35;;;15.57;;
24644;SDS011;12780;45.502;9.146;2023-01-29T17:08:06;30.27;;;14.07;;
24644;SDS011;12780;45.502;9.146;2023-01-29T17:10:38;36.53;;;15.60;;